Time,TemperatureF,DewpointF,PressureIn,WindDirection,WindDirectionDegrees,WindSpeedMPH,WindSpeedGustMPH,Humidity,HourlyPrecipIn,Conditions,Clouds,dailyrainin,SoftwareType,DateUTC
2013-05-23 00:03:00,77.0,-99.9,29.98,ESE,102,2.0,6.0,-999,-99.99,,,-99.99,,2013-05-23 04:03:00,
2013-05-23 00:12:00,77.0,-99.9,29.98,East,98,3.0,4.0,-999,-99.99,,,-99.99,,2013-05-23 04:12:00,
2013-05-23 00:23:00,76.0,-99.9,29.98,East,83,5.0,6.0,-999,-99.99,,,-99.99,,2013-05-23 04:23:00,
2013-05-23 00:33:00,76.0,-99.9,29.98,East,87,4.0,7.0,-999,-99.99,,,-99.99,,2013-05-23 04:33:00,
2013-05-23 00:43:00,76.0,-99.9,29.98,East,98,4.0,5.0,-999,-99.99,,,-99.99,,2013-05-23 04:43:00,
2013-05-23 00:52:00,76.0,-99.9,29.98,East,90,4.0,6.0,-999,-99.99,,,-99.99,,2013-05-23 04:52:00,
2013-05-23 01:02:00,75.0,-99.9,29.98,East,81,5.0,6.0,-999,-99.99,,,-99.99,,2013-05-23 05:02:00,
2013-05-23 01:12:00,75.0,-99.9,29.97,East,91,3.0,5.0,-999,-99.99,,,-99.99,,2013-05-23 05:12:00,
2013-05-23 01:22:00,76.0,-99.9,29.97,East,99,3.0,6.0,-999,-99.99,,,-99.99,,2013-05-23 05:22:00,
2013-05-23 01:32:00,75.0,-99.9,29.97,East,84,3.0,4.0,-999,-99.99,,,-99.99,,2013-05-23 05:32:00,
2013-05-23 01:43:00,75.0,-99.9,29.96,East,99,4.0,6.0,-999,-99.99,,,-99.99,,2013-05-23 05:43:00,
2013-05-23 01:52:00,75.0,-99.9,29.96,ESE,117,3.0,5.0,-999,-99.99,,,-99.99,,2013-05-23 05:52:00,
2013-05-23 02:02:00,75.0,-99.9,29.96,SE,144,2.0,4.0,-999,-99.99,,,-99.99,,2013-05-23 06:02:00,
2013-05-23 02:12:00,75.0,-99.9,29.96,ESE,118,2.0,3.0,-999,-99.99,,,-99.99,,2013-05-23 06:12:00,
2013-05-23 02:22:00,75.0,-99.9,29.96,South,173,2.0,3.0,-999,-99.99,,,-99.99,,2013-05-23 06:22:00,
2013-05-23 02:32:00,76.0,-99.9,29.95,South,176,3.0,3.0,-999,-99.99,,,-99.99,,2013-05-23 06:32:00,
2013-05-23 02:42:00,76.0,-99.9,29.95,SSE,153,4.0,4.0,-999,-99.99,,,-99.99,,2013-05-23 06:42:00,
2013-05-23 02:52:00,76.0,-99.9,29.95,SSE,159,4.0,4.0,-999,-99.99,,,-99.99,,2013-05-23 06:52:00,
2013-05-23 03:02:00,76.0,-99.9,29.95,SSE,156,3.0,4.0,-999,-99.99,,,-99.99,,2013-05-23 07:02:00,
2013-05-23 03:11:00,76.0,-99.9,29.95,SSE,166,2.0,4.0,-999,-99.99,,,-99.99,,2013-05-23 07:11:00,
2013-05-23 03:22:00,76.0,-99.9,29.95,SSE,151,3.0,4.0,-999,-99.99,,,-99.99,,2013-05-23 07:22:00,
2013-05-23 03:32:00,77.0,-99.9,29.95,South,175,2.0,4.0,-999,-99.99,,,-99.99,,2013-05-23 07:32:00,
2013-05-23 03:42:00,78.0,-99.9,29.95,SW,230,4.0,9.0,-999,-99.99,,,-99.99,,2013-05-23 07:42:00,
2013-05-23 03:59:00,78.0,-99.9,29.95,SSW,203,2.0,6.0,-999,-99.99,,,-99.99,,2013-05-23 07:59:00,
2013-05-23 04:12:00,78.0,-99.9,29.96,WSW,250,8.0,10.0,-999,-99.99,,,-99.99,,2013-05-23 08:12:00,
2013-05-23 04:22:00,79.0,-99.9,29.95,WSW,251,8.0,11.0,-999,-99.99,,,-99.99,,2013-05-23 08:22:00,
2013-05-23 04:32:00,78.0,-99.9,29.95,WSW,250,8.0,10.0,-999,-99.99,,,-99.99,,2013-05-23 08:32:00,
2013-05-23 04:42:00,78.0,-99.9,29.96,West,263,9.0,11.0,-999,-99.99,,,-99.99,,2013-05-23 08:42:00,
2013-05-23 04:52:00,78.0,-99.9,29.95,WSW,252,8.0,10.0,-999,-99.99,,,-99.99,,2013-05-23 08:52:00,
2013-05-23 05:02:00,78.0,-99.9,29.96,West,267,8.0,11.0,-999,-99.99,,,-99.99,,2013-05-23 09:02:00,
2013-05-23 05:11:00,78.0,-99.9,29.96,WSW,254,9.0,11.0,-999,-99.99,,,-99.99,,2013-05-23 09:11:00,
2013-05-23 05:22:00,78.0,-99.9,29.96,WSW,252,9.0,12.0,-999,-99.99,,,-99.99,,2013-05-23 09:22:00,
2013-05-23 05:33:00,78.0,-99.9,29.96,WSW,253,10.0,12.0,-999,-99.99,,,-99.99,,2013-05-23 09:33:00,
2013-05-23 05:42:00,78.0,-99.9,29.97,WSW,251,9.0,12.0,-999,-99.99,,,-99.99,,2013-05-23 09:42:00,
2013-05-23 05:53:00,78.0,-99.9,29.97,WSW,255,10.0,13.0,-999,-99.99,,,-99.99,,2013-05-23 09:53:00,
2013-05-23 06:03:00,78.0,-99.9,29.97,WSW,257,11.0,12.0,-999,-99.99,,,-99.99,,2013-05-23 10:03:00,
2013-05-23 06:13:00,78.0,-99.9,29.97,WSW,253,10.0,13.0,-999,-99.99,,,-99.99,,2013-05-23 10:13:00,
2013-05-23 06:22:00,78.0,-99.9,29.97,West,260,9.0,11.0,-999,-99.99,,,-99.99,,2013-05-23 10:22:00,
2013-05-23 06:33:00,78.0,-99.9,29.98,WNW,282,8.0,11.0,-999,-99.99,,,-99.99,,2013-05-23 10:33:00,
2013-05-23 06:42:00,78.0,-99.9,29.98,West,279,9.0,11.0,-999,-99.99,,,-99.99,,2013-05-23 10:42:00,
2013-05-23 06:52:00,78.0,-99.9,29.98,West,280,9.0,12.0,-999,-99.99,,,-99.99,,2013-05-23 10:52:00,
2013-05-23 07:02:00,78.0,-99.9,29.99,West,267,11.0,13.0,-999,-99.99,,,-99.99,,2013-05-23 11:02:00,
2013-05-23 07:12:00,78.0,-99.9,29.99,West,272,8.0,13.0,-999,-99.99,,,-99.99,,2013-05-23 11:12:00,
2013-05-23 07:22:00,78.0,-99.9,30.00,WNW,282,9.0,11.0,-999,-99.99,,,-99.99,,2013-05-23 11:22:00,
2013-05-23 07:32:00,78.0,-99.9,30.00,WNW,288,9.0,11.0,-999,-99.99,,,-99.99,,2013-05-23 11:32:00,
2013-05-23 07:42:00,78.0,-99.9,30.00,WNW,286,11.0,14.0,-999,-99.99,,,-99.99,,2013-05-23 11:42:00,
2013-05-23 07:52:00,78.0,-99.9,30.01,WNW,293,12.0,14.0,-999,-99.99,,,-99.99,,2013-05-23 11:52:00,
2013-05-23 08:02:00,78.0,-99.9,30.01,NW,304,11.0,14.0,-999,-99.99,,,-99.99,,2013-05-23 12:02:00,
2013-05-23 08:12:00,78.0,-99.9,30.02,WNW,298,11.0,14.0,-999,-99.99,,,-99.99,,2013-05-23 12:12:00,
2013-05-23 08:22:00,78.0,-99.9,30.03,NW,307,11.0,13.0,-999,-99.99,,,-99.99,,2013-05-23 12:22:00,
2013-05-23 08:33:00,78.0,-99.9,30.03,NW,306,11.0,15.0,-999,-99.99,,,-99.99,,2013-05-23 12:33:00,
2013-05-23 08:42:00,78.0,-99.9,30.03,NW,314,12.0,14.0,-999,-99.99,,,-99.99,,2013-05-23 12:42:00,
2013-05-23 08:52:00,78.0,-99.9,30.04,NW,314,11.0,13.0,-999,-99.99,,,-99.99,,2013-05-23 12:52:00,
2013-05-23 09:02:00,78.0,-99.9,30.04,NW,314,11.0,14.0,-999,-99.99,,,-99.99,,2013-05-23 13:02:00,
2013-05-23 09:11:00,78.0,-99.9,30.04,NW,308,11.0,15.0,-999,-99.99,,,-99.99,,2013-05-23 13:11:00,
2013-05-23 09:22:00,78.0,-99.9,30.05,NW,308,10.0,14.0,-999,-99.99,,,-99.99,,2013-05-23 13:22:00,
2013-05-23 09:32:00,78.0,-99.9,30.05,NW,308,10.0,14.0,-999,-99.99,,,-99.99,,2013-05-23 13:32:00,
2013-05-23 09:42:00,78.0,-99.9,30.05,NW,312,10.0,12.0,-999,-99.99,,,-99.99,,2013-05-23 13:42:00,
2013-05-23 09:52:00,78.0,-99.9,30.05,NW,314,12.0,13.0,-999,-99.99,,,-99.99,,2013-05-23 13:52:00,
2013-05-23 10:02:00,78.0,-99.9,30.05,NW,315,10.0,13.0,-999,-99.99,,,-99.99,,2013-05-23 14:02:00,
2013-05-23 10:11:00,78.0,-99.9,30.05,NW,315,9.0,15.0,-999,-99.99,,,-99.99,,2013-05-23 14:11:00,
2013-05-23 10:22:00,78.0,-99.9,30.05,NW,312,10.0,13.0,-999,-99.99,,,-99.99,,2013-05-23 14:22:00,
2013-05-23 10:32:00,78.0,-99.9,30.05,NW,309,10.0,12.0,-999,-99.99,,,-99.99,,2013-05-23 14:32:00,
2013-05-23 10:42:00,79.0,-99.9,30.05,NW,312,10.0,12.0,-999,-99.99,,,-99.99,,2013-05-23 14:42:00,
2013-05-23 10:52:00,78.0,-99.9,30.06,NW,312,11.0,12.0,-999,-99.99,,,-99.99,,2013-05-23 14:52:00,
2013-05-23 11:01:00,79.0,-99.9,30.06,NW,313,7.0,10.0,-999,-99.99,,,-99.99,,2013-05-23 15:01:00,
2013-05-23 11:11:00,78.0,-99.9,30.06,NW,307,10.0,12.0,-999,-99.99,,,-99.99,,2013-05-23 15:11:00,
2013-05-23 11:22:00,79.0,-99.9,30.06,NW,306,8.0,10.0,-999,-99.99,,,-99.99,,2013-05-23 15:22:00,
2013-05-23 11:33:00,79.0,-99.9,30.06,NW,305,9.0,11.0,-999,-99.99,,,-99.99,,2013-05-23 15:33:00,
2013-05-23 11:43:00,79.0,-99.9,30.06,NW,306,9.0,11.0,-999,-99.99,,,-99.99,,2013-05-23 15:43:00,
2013-05-23 11:53:00,79.0,-99.9,30.06,NW,313,8.0,10.0,-999,-99.99,,,-99.99,,2013-05-23 15:53:00,
2013-05-23 12:03:00,79.0,-99.9,30.06,NW,304,9.0,11.0,-999,-99.99,,,-99.99,,2013-05-23 16:03:00,
2013-05-23 12:13:00,78.0,-99.9,30.06,NW,308,9.0,11.0,-999,-99.99,,,-99.99,,2013-05-23 16:13:00,
2013-05-23 12:23:00,78.0,-99.9,30.06,NW,304,11.0,12.0,-999,-99.99,,,-99.99,,2013-05-23 16:23:00,
2013-05-23 12:34:00,79.0,-99.9,30.06,NW,312,9.0,12.0,-999,-99.99,,,-99.99,,2013-05-23 16:34:00,
2013-05-23 12:43:00,79.0,-99.9,30.06,NW,310,10.0,12.0,-999,-99.99,,,-99.99,,2013-05-23 16:43:00,
2013-05-23 12:53:00,78.0,-99.9,30.06,NW,304,10.0,12.0,-999,-99.99,,,-99.99,,2013-05-23 16:53:00,
2013-05-23 13:03:00,78.0,-99.9,30.06,NW,307,11.0,13.0,-999,-99.99,,,-99.99,,2013-05-23 17:03:00,
2013-05-23 13:12:00,78.0,-99.9,30.06,NW,311,12.0,14.0,-999,-99.99,,,-99.99,,2013-05-23 17:12:00,
2013-05-23 13:23:00,78.0,-99.9,30.05,NW,307,11.0,13.0,-999,-99.99,,,-99.99,,2013-05-23 17:23:00,
2013-05-23 13:34:00,78.0,-99.9,30.05,NW,306,13.0,16.0,-999,-99.99,,,-99.99,,2013-05-23 17:34:00,
2013-05-23 13:43:00,78.0,-99.9,30.05,NW,307,11.0,14.0,-999,-99.99,,,-99.99,,2013-05-23 17:43:00,
2013-05-23 13:53:00,79.0,-99.9,30.05,WNW,302,11.0,13.0,-999,-99.99,,,-99.99,,2013-05-23 17:53:00,
2013-05-23 14:02:00,78.0,-99.9,30.05,NW,306,11.0,13.0,-999,-99.99,,,-99.99,,2013-05-23 18:02:00,
2013-05-23 14:11:00,78.0,-99.9,30.04,NW,306,12.0,13.0,-999,-99.99,,,-99.99,,2013-05-23 18:11:00,
2013-05-23 14:22:00,79.0,-99.9,30.04,NW,305,11.0,14.0,-999,-99.99,,,-99.99,,2013-05-23 18:22:00,
2013-05-23 14:32:00,78.0,-99.9,30.04,NW,307,11.0,13.0,-999,-99.99,,,-99.99,,2013-05-23 18:32:00,
2013-05-23 14:42:00,79.0,-99.9,30.04,WNW,300,11.0,13.0,-999,-99.99,,,-99.99,,2013-05-23 18:42:00,
2013-05-23 14:52:00,78.0,-99.9,30.03,WNW,299,10.0,12.0,-999,-99.99,,,-99.99,,2013-05-23 18:52:00,
2013-05-23 15:02:00,79.0,-99.9,30.03,NW,306,9.0,11.0,-999,-99.99,,,-99.99,,2013-05-23 19:02:00,
2013-05-23 15:11:00,79.0,-99.9,30.03,WNW,301,10.0,13.0,-999,-99.99,,,-99.99,,2013-05-23 19:11:00,
2013-05-23 15:22:00,79.0,-99.9,30.02,NW,304,11.0,12.0,-999,-99.99,,,-99.99,,2013-05-23 19:22:00,
2013-05-23 15:32:00,79.0,-99.9,30.02,WNW,301,11.0,14.0,-999,-99.99,,,-99.99,,2013-05-23 19:32:00,
2013-05-23 15:42:00,79.0,-99.9,30.02,WNW,302,12.0,13.0,-999,-99.99,,,-99.99,,2013-05-23 19:42:00,
2013-05-23 15:52:00,79.0,-99.9,30.02,WNW,300,11.0,13.0,-999,-99.99,,,-99.99,,2013-05-23 19:52:00,
2013-05-23 16:02:00,79.0,-99.9,30.01,WNW,301,12.0,14.0,-999,-99.99,,,-99.99,,2013-05-23 20:02:00,
2013-05-23 16:12:00,79.0,-99.9,30.01,NW,312,12.0,13.0,-999,-99.99,,,-99.99,,2013-05-23 20:12:00,
2013-05-23 16:22:00,79.0,-99.9,30.01,NW,312,12.0,13.0,-999,-99.99,,,-99.99,,2013-05-23 20:22:00,
2013-05-23 16:32:00,79.0,-99.9,30.01,NW,306,13.0,15.0,-999,-99.99,,,-99.99,,2013-05-23 20:32:00,
2013-05-23 16:42:00,79.0,-99.9,30.01,NW,307,12.0,14.0,-999,-99.99,,,-99.99,,2013-05-23 20:42:00,
2013-05-23 16:52:00,79.0,-99.9,30.00,WNW,303,12.0,14.0,-999,-99.99,,,-99.99,,2013-05-23 20:52:00,
2013-05-23 17:01:00,79.0,-99.9,30.00,WNW,302,13.0,15.0,-999,-99.99,,,-99.99,,2013-05-23 21:01:00,
2013-05-23 17:11:00,79.0,-99.9,30.00,WNW,302,12.0,16.0,-999,-99.99,,,-99.99,,2013-05-23 21:11:00,
2013-05-23 17:22:00,79.0,-99.9,30.00,WNW,301,12.0,14.0,-999,-99.99,,,-99.99,,2013-05-23 21:22:00,
2013-05-23 17:33:00,79.0,-99.9,30.00,WNW,301,13.0,16.0,-999,-99.99,,,-99.99,,2013-05-23 21:33:00,
2013-05-23 17:43:00,79.0,-99.9,29.99,WNW,299,13.0,15.0,-999,-99.99,,,-99.99,,2013-05-23 21:43:00,
2013-05-23 17:53:00,79.0,-99.9,29.99,WNW,300,13.0,15.0,-999,-99.99,,,-99.99,,2013-05-23 21:53:00,
2013-05-23 18:03:00,79.0,-99.9,30.00,WNW,295,12.0,14.0,-999,-99.99,,,-99.99,,2013-05-23 22:03:00,
2013-05-23 18:12:00,79.0,-99.9,30.00,WNW,299,13.0,16.0,-999,-99.99,,,-99.99,,2013-05-23 22:12:00,
2013-05-23 18:23:00,79.0,-99.9,30.00,WNW,297,13.0,15.0,-999,-99.99,,,-99.99,,2013-05-23 22:23:00,
2013-05-23 18:33:00,80.0,-99.9,30.00,WNW,300,12.0,15.0,-999,-99.99,,,-99.99,,2013-05-23 22:33:00,
2013-05-23 18:42:00,79.0,-99.9,30.00,WNW,303,14.0,15.0,-999,-99.99,,,-99.99,,2013-05-23 22:42:00,
2013-05-23 18:52:00,79.0,-99.9,30.00,WNW,303,13.0,15.0,-999,-99.99,,,-99.99,,2013-05-23 22:52:00,
2013-05-23 19:02:00,80.0,-99.9,30.00,WNW,301,13.0,15.0,-999,-99.99,,,-99.99,,2013-05-23 23:02:00,
2013-05-23 19:12:00,80.0,-99.9,30.00,WNW,303,13.0,15.0,-999,-99.99,,,-99.99,,2013-05-23 23:12:00,
2013-05-23 19:22:00,79.0,-99.9,30.00,NW,307,13.0,15.0,-999,-99.99,,,-99.99,,2013-05-23 23:22:00,
2013-05-23 19:32:00,79.0,-99.9,30.00,NW,304,13.0,15.0,-999,-99.99,,,-99.99,,2013-05-23 23:32:00,
2013-05-23 19:42:00,79.0,-99.9,30.00,NW,308,13.0,15.0,-999,-99.99,,,-99.99,,2013-05-23 23:42:00,
2013-05-23 19:52:00,80.0,-99.9,30.00,NW,304,12.0,14.0,-999,-99.99,,,-99.99,,2013-05-23 23:52:00,
2013-05-23 20:01:00,79.0,-99.9,30.00,WNW,300,12.0,15.0,-999,-99.99,,,-99.99,,2013-05-24 00:01:00,
2013-05-23 20:12:00,79.0,-99.9,30.00,WNW,299,12.0,14.0,-999,-99.99,,,-99.99,,2013-05-24 00:12:00,
2013-05-23 20:22:00,79.0,-99.9,30.00,WNW,298,12.0,15.0,-999,-99.99,,,-99.99,,2013-05-24 00:22:00,
2013-05-23 20:32:00,79.0,-99.9,30.00,WNW,303,11.0,13.0,-999,-99.99,,,-99.99,,2013-05-24 00:32:00,
2013-05-23 20:42:00,79.0,-99.9,30.01,NW,305,11.0,13.0,-999,-99.99,,,-99.99,,2013-05-24 00:42:00,
2013-05-23 20:52:00,79.0,-99.9,30.01,NW,304,10.0,13.0,-999,-99.99,,,-99.99,,2013-05-24 00:52:00,
2013-05-23 21:01:00,79.0,-99.9,30.01,WNW,301,11.0,13.0,-999,-99.99,,,-99.99,,2013-05-24 01:01:00,
2013-05-23 21:12:00,79.0,-99.9,30.01,WNW,302,11.0,12.0,-999,-99.99,,,-99.99,,2013-05-24 01:12:00,
2013-05-23 21:22:00,79.0,-99.9,30.01,NW,304,11.0,13.0,-999,-99.99,,,-99.99,,2013-05-24 01:22:00,
2013-05-23 21:32:00,79.0,-99.9,30.02,NW,310,11.0,13.0,-999,-99.99,,,-99.99,,2013-05-24 01:32:00,
2013-05-23 21:42:00,79.0,-99.9,30.02,NW,310,13.0,14.0,-999,-99.99,,,-99.99,,2013-05-24 01:42:00,
2013-05-23 22:02:00,79.0,-99.9,30.03,NW,316,13.0,15.0,-999,-99.99,,,-99.99,,2013-05-24 02:02:00,
2013-05-23 22:12:00,79.0,-99.9,30.03,NW,316,12.0,14.0,-999,-99.99,,,-99.99,,2013-05-24 02:12:00,
2013-05-23 22:22:00,79.0,-99.9,30.03,NW,315,13.0,15.0,-999,-99.99,,,-99.99,,2013-05-24 02:22:00,
2013-05-23 22:32:00,79.0,-99.9,30.04,NW,318,14.0,16.0,-999,-99.99,,,-99.99,,2013-05-24 02:32:00,
2013-05-23 22:42:00,79.0,-99.9,30.04,NW,319,14.0,16.0,-999,-99.99,,,-99.99,,2013-05-24 02:42:00,
2013-05-23 22:52:00,79.0,-99.9,30.04,NW,315,14.0,16.0,-999,-99.99,,,-99.99,,2013-05-24 02:52:00,
2013-05-23 23:02:00,79.0,-99.9,30.04,NW,319,13.0,15.0,-999,-99.99,,,-99.99,,2013-05-24 03:02:00,
2013-05-23 23:11:00,79.0,-99.9,30.03,NW,324,15.0,16.0,-999,-99.99,,,-99.99,,2013-05-24 03:11:00,
2013-05-23 23:22:00,79.0,-99.9,30.04,NW,320,14.0,15.0,-999,-99.99,,,-99.99,,2013-05-24 03:22:00,
2013-05-23 23:33:00,79.0,-99.9,30.04,NW,318,15.0,16.0,-999,-99.99,,,-99.99,,2013-05-24 03:33:00,
2013-05-23 23:43:00,79.0,-99.9,30.04,NW,324,14.0,15.0,-999,-99.99,,,-99.99,,2013-05-24 03:43:00,
2013-05-23 23:53:00,79.0,-99.9,30.04,NW,321,14.0,17.0,-999,-99.99,,,-99.99,,2013-05-24 03:53:00,